createdAt,value
2018-05-13T00:03:53.023Z,61.70
2018-05-13T00:08:48.140Z,61.40
2018-05-13T00:13:43.388Z,61.00
2018-05-13T00:18:37.747Z,60.90
2018-05-13T00:23:32.280Z,60.30
2018-05-13T00:28:26.903Z,60.00
2018-05-13T00:33:21.358Z,59.80
2018-05-13T00:38:15.720Z,59.60
2018-05-13T00:43:10.063Z,59.70
2018-05-13T00:48:04.416Z,59.80
2018-05-13T00:52:58.792Z,60.00
2018-05-13T00:57:54.088Z,60.20
2018-05-13T01:02:48.525Z,60.10
2018-05-13T01:07:43.068Z,60.20
2018-05-13T01:12:37.439Z,60.50
2018-05-13T01:17:32.925Z,61.40
2018-05-13T01:22:27.336Z,61.60
2018-05-13T01:27:21.453Z,62.20
2018-05-13T01:32:16.906Z,62.10
2018-05-13T01:37:11.255Z,62.20
2018-05-13T01:42:05.272Z,62.20
2018-05-13T01:47:00.415Z,62.40
2018-05-13T01:51:55.526Z,62.40
2018-05-13T01:56:50.651Z,62.80
2018-05-13T02:01:45.756Z,62.70
2018-05-13T02:06:41.114Z,63.00
2018-05-13T02:11:35.504Z,62.30
2018-05-13T02:16:30.628Z,63.50
2018-05-13T02:21:24.755Z,63.40
2018-05-13T02:26:19.124Z,64.60
2018-05-13T02:31:14.236Z,64.70
2018-05-13T02:36:09.346Z,65.40
2018-05-13T02:41:04.483Z,65.80
2018-05-13T02:45:59.625Z,66.10
2018-05-13T02:50:54.003Z,66.90
2018-05-13T02:55:49.131Z,66.10
2018-05-13T03:00:43.503Z,66.10
2018-05-13T03:05:37.985Z,65.90
2018-05-13T03:10:32.345Z,66.80
2018-05-13T03:15:26.790Z,68.00
2018-05-13T03:20:21.275Z,69.00
2018-05-13T03:25:15.624Z,71.30
2018-05-13T03:30:10.105Z,74.30
2018-05-13T03:35:04.465Z,76.40
2018-05-13T03:39:58.826Z,77.50
2018-05-13T03:44:53.198Z,78.60
2018-05-13T03:49:47.560Z,79.50
2018-05-13T03:54:42.926Z,80.60
2018-05-13T03:59:37.296Z,80.60
2018-05-13T04:04:31.657Z,81.00
2018-05-13T04:09:43.356Z,82.80
2018-05-13T04:14:55.056Z,82.80
2018-05-13T04:19:49.409Z,82.60
2018-05-13T04:24:44.554Z,84.90
2018-05-13T04:29:38.905Z,84.90
2018-05-13T04:34:33.479Z,83.90
2018-05-13T04:39:27.828Z,85.00
2018-05-13T04:44:22.950Z,86.30
2018-05-13T04:49:18.088Z,85.60
2018-05-13T04:54:13.242Z,85.40
2018-05-13T04:59:07.582Z,85.30
2018-05-13T05:04:02.166Z,85.30
2018-05-13T05:08:56.789Z,84.60
2018-05-13T05:13:52.085Z,83.30
2018-05-13T05:18:46.437Z,83.20
2018-05-13T05:23:40.859Z,82.00
2018-05-13T05:28:36.070Z,79.50
2018-05-13T05:33:31.176Z,78.20
2018-05-13T05:38:25.551Z,78.20
2018-05-13T05:43:19.919Z,77.70
2018-05-13T05:48:14.336Z,77.70
2018-05-13T05:53:08.804Z,77.80
2018-05-13T05:58:03.924Z,79.20
2018-05-13T06:02:59.048Z,79.70
2018-05-13T06:07:54.176Z,80.40
2018-05-13T06:12:48.618Z,80.40
2018-05-13T06:17:43.272Z,80.00
2018-05-13T06:22:38.392Z,75.30
2018-05-13T06:27:33.530Z,74.10
2018-05-13T06:32:27.898Z,74.10
2018-05-13T06:37:23.888Z,74.10
2018-05-13T06:42:18.240Z,74.10
2018-05-13T06:47:12.610Z,74.80
2018-05-13T06:52:06.966Z,75.20
2018-05-13T06:57:02.105Z,77.00
2018-05-13T07:01:57.727Z,78.10
2018-05-13T07:06:52.846Z,78.80
2018-05-13T07:11:47.985Z,79.50
2018-05-13T07:16:43.456Z,79.40
2018-05-13T07:21:37.958Z,80.60
2018-05-13T07:26:32.345Z,81.10
2018-05-13T07:31:27.730Z,82.40
2018-05-13T07:36:22.912Z,82.80
2018-05-13T07:41:17.387Z,82.80
2018-05-13T07:46:12.022Z,84.30
2018-05-13T07:51:06.470Z,85.00
2018-05-13T07:56:01.578Z,88.40
2018-05-13T08:00:56.718Z,89.20
2018-05-13T08:05:51.121Z,89.30
2018-05-13T08:10:45.678Z,90.30
2018-05-13T08:15:40.421Z,91.30
2018-05-13T08:20:35.696Z,91.80
2018-05-13T08:25:30.865Z,92.70
2018-05-13T08:30:26.074Z,92.70
2018-05-13T08:35:20.503Z,92.60
2018-05-13T08:40:15.611Z,92.60
2018-05-13T08:45:10.750Z,92.90
2018-05-13T08:50:05.143Z,92.80
2018-05-13T08:55:00.276Z,92.10
2018-05-13T08:59:54.808Z,92.10
2018-05-13T09:04:49.150Z,91.80
2018-05-13T09:09:43.524Z,91.40
2018-05-13T09:14:37.883Z,91.40
2018-05-13T09:19:32.264Z,91.40
2018-05-13T09:24:27.406Z,91.40
2018-05-13T09:29:21.780Z,91.40
2018-05-13T09:34:16.248Z,91.80
2018-05-13T09:39:10.627Z,91.90
2018-05-13T09:44:05.000Z,91.80
2018-05-13T09:49:00.126Z,92.30
2018-05-13T09:53:55.584Z,92.70
2018-05-13T09:58:49.968Z,92.30
2018-05-13T10:03:45.308Z,93.10
2018-05-13T10:08:39.808Z,93.10
2018-05-13T10:13:34.179Z,93.50
2018-05-13T10:18:28.546Z,93.90
2018-05-13T10:23:24.076Z,94.00
2018-05-13T10:28:18.603Z,94.00
2018-05-13T10:33:13.004Z,94.40
2018-05-13T10:38:07.541Z,94.50
2018-05-13T10:43:02.656Z,94.90
2018-05-13T10:47:57.783Z,95.00
2018-05-13T10:52:53.057Z,94.90
2018-05-13T10:57:47.493Z,94.90
2018-05-13T11:02:42.092Z,94.80
2018-05-13T11:07:36.486Z,94.40
2018-05-13T11:12:30.870Z,94.20
2018-05-13T11:17:25.655Z,94.00
2018-05-13T11:22:20.086Z,93.90
2018-05-13T11:27:14.458Z,94.10
2018-05-13T11:32:08.586Z,94.20
2018-05-13T11:37:02.948Z,94.60
2018-05-13T11:41:58.070Z,94.80
2018-05-13T11:46:53.430Z,95.00
2018-05-13T11:51:47.800Z,94.90
2018-05-13T11:56:42.175Z,95.00
2018-05-13T12:01:36.544Z,95.10
2018-05-13T12:06:31.033Z,95.40
2018-05-13T12:11:25.886Z,95.50
2018-05-13T12:16:20.264Z,95.90
2018-05-13T12:21:14.621Z,96.00
2018-05-13T12:26:09.579Z,96.20
2018-05-13T12:31:03.958Z,96.10
2018-05-13T12:35:58.324Z,96.20
2018-05-13T12:40:52.818Z,96.50
2018-05-13T12:45:47.194Z,96.30
2018-05-13T12:50:41.566Z,96.40
2018-05-13T12:55:36.924Z,96.00
2018-05-13T13:00:31.266Z,96.00
2018-05-13T13:05:26.213Z,96.00
2018-05-13T13:10:20.332Z,95.90
2018-05-13T13:15:14.772Z,95.90
2018-05-13T13:20:09.448Z,95.80
2018-05-13T13:25:03.927Z,95.90
2018-05-13T13:29:58.373Z,96.10
2018-05-13T13:34:52.833Z,96.10
2018-05-13T13:39:47.210Z,96.00
2018-05-13T13:44:42.110Z,95.80
2018-05-13T13:49:37.013Z,95.80
2018-05-13T13:54:31.382Z,95.50
2018-05-13T13:59:25.755Z,95.70
2018-05-13T14:04:20.385Z,95.60
2018-05-13T14:09:14.734Z,95.80
2018-05-13T14:14:10.019Z,95.80
2018-05-13T14:19:04.392Z,95.80
2018-05-13T14:23:59.860Z,95.30
2018-05-13T14:28:54.228Z,95.30
2018-05-13T14:33:49.374Z,95.10
2018-05-13T14:38:43.730Z,95.10
2018-05-13T14:43:37.861Z,95.10
2018-05-13T14:48:32.222Z,95.10
2018-05-13T14:53:26.604Z,95.40
2018-05-13T14:58:20.964Z,95.90
2018-05-13T15:03:16.317Z,96.10
2018-05-13T15:08:10.682Z,96.10
2018-05-13T15:13:05.806Z,96.10
2018-05-13T15:18:01.164Z,96.20
2018-05-13T15:22:55.547Z,96.20
2018-05-13T15:27:49.912Z,96.40
2018-05-13T15:32:44.666Z,96.60
2018-05-13T15:37:39.109Z,96.70
2018-05-13T15:42:33.463Z,96.70
2018-05-13T15:47:28.008Z,96.80
2018-05-13T15:52:22.421Z,97.20
2018-05-13T15:57:16.810Z,97.30
2018-05-13T16:02:11.191Z,97.30
2018-05-13T16:07:05.822Z,97.30
2018-05-13T16:12:00.280Z,97.10
2018-05-13T16:16:54.991Z,97.20
2018-05-13T16:21:50.154Z,97.30
2018-05-13T16:26:44.573Z,97.30
2018-05-13T16:31:39.856Z,97.30
2018-05-13T16:36:34.579Z,97.20
2018-05-13T16:41:28.947Z,97.50
2018-05-13T16:46:24.096Z,97.90
2018-05-13T16:51:18.630Z,97.90
2018-05-13T16:56:13.166Z,97.70
2018-05-13T17:01:07.527Z,98.10
2018-05-13T17:06:02.131Z,97.90
2018-05-13T17:10:56.898Z,98.20
2018-05-13T17:15:51.250Z,98.30
2018-05-13T17:20:52.880Z,98.80
2018-05-13T17:25:53.543Z,99.10
2018-05-13T17:30:48.766Z,99.00
2018-05-13T17:35:44.571Z,99.00
2018-05-13T17:40:38.776Z,99.00
2018-05-13T17:45:33.374Z,99.40
2018-05-13T17:50:27.743Z,99.90
2018-05-13T17:55:22.111Z,99.90
2018-05-13T18:00:17.573Z,99.90
2018-05-13T18:05:12.627Z,99.90
2018-05-13T18:10:07.996Z,99.90
2018-05-13T18:15:02.583Z,99.90
2018-05-13T18:19:57.392Z,99.90
2018-05-13T18:24:52.874Z,99.90
2018-05-13T18:29:48.373Z,99.90
2018-05-13T18:34:43.111Z,99.90
2018-05-13T18:39:38.064Z,99.90
2018-05-13T18:44:33.633Z,99.90
2018-05-13T18:49:30.213Z,99.90
2018-05-13T18:54:24.929Z,99.90
2018-05-13T18:59:19.716Z,99.90
2018-05-13T19:04:14.384Z,99.90
2018-05-13T19:09:10.450Z,99.90
2018-05-13T19:14:10.642Z,99.90
2018-05-13T19:19:05.120Z,99.90
2018-05-13T19:23:59.652Z,99.90
2018-05-13T19:28:54.043Z,99.90
2018-05-13T19:33:48.651Z,99.90
2018-05-13T19:38:43.412Z,99.90
2018-05-13T19:43:38.172Z,99.90
2018-05-13T19:48:32.782Z,99.90
2018-05-13T19:53:29.035Z,99.90
2018-05-13T19:58:23.561Z,99.90
2018-05-13T20:03:18.402Z,99.90
2018-05-13T20:08:12.904Z,99.90
2018-05-13T20:13:08.253Z,99.90
2018-05-13T20:18:03.705Z,99.90
2018-05-13T20:23:15.146Z,99.90
2018-05-13T20:28:09.559Z,99.90
2018-05-13T20:33:04.119Z,99.90
2018-05-13T20:37:58.590Z,99.90
2018-05-13T20:42:53.884Z,99.90
2018-05-13T20:47:48.384Z,99.90
2018-05-13T20:52:42.945Z,99.90
2018-05-13T20:57:37.942Z,99.90
2018-05-13T21:02:33.462Z,99.90
2018-05-13T21:07:30.520Z,99.90
2018-05-13T21:12:27.316Z,99.90
2018-05-13T21:17:22.044Z,99.90
2018-05-13T21:22:16.950Z,99.90
2018-05-13T21:27:11.668Z,99.90
2018-05-13T21:32:06.755Z,99.90
2018-05-13T21:37:01.296Z,99.90
2018-05-13T21:41:56.341Z,99.90
2018-05-13T21:46:50.916Z,99.90
2018-05-13T21:51:53.127Z,99.90
2018-05-13T21:56:57.510Z,99.90
2018-05-13T22:02:05.464Z,99.90
2018-05-13T22:07:07.424Z,99.90
2018-05-13T22:12:15.114Z,99.90
2018-05-13T22:17:20.180Z,99.90
2018-05-13T22:22:23.983Z,99.90
2018-05-13T22:27:25.969Z,99.90
2018-05-13T22:32:28.737Z,99.90
2018-05-13T22:42:45.641Z,99.90
2018-05-13T22:47:45.485Z,99.90
2018-05-13T22:52:48.233Z,99.90
2018-05-13T22:57:53.596Z,99.90
2018-05-13T23:02:58.524Z,99.90
2018-05-13T23:08:06.256Z,99.90
2018-05-13T23:13:16.085Z,99.90
2018-05-13T23:18:26.224Z,99.90
2018-05-13T23:23:21.338Z,99.90
2018-05-13T23:28:15.707Z,99.90
2018-05-13T23:33:10.083Z,99.90
2018-05-13T23:38:10.955Z,99.90
2018-05-13T23:43:05.339Z,99.90
2018-05-13T23:48:00.715Z,99.90
2018-05-13T23:52:55.196Z,99.90
2018-05-13T23:57:49.568Z,99.90
